Time;durP1;ratioP1;P1;durP2;ratioP2;P2;SDS_P1;SDS_P2;PMS_P1;PMS_P2;Temp;Humidity;BMP_temperature;BMP_pressure;BME280_temperature;BME280_humidity;BME280_pressure;Samples;Min_cycle;Max_cycle;Signal;HPM_P1;HPM_P2
2021/06/30 00:00:39;;;;;;;8.00;5.50;;;;;;;19.53;100.00;100202.44;5053310;28;20450;-75
2021/06/30 00:03:06;;;;;;;6.77;4.60;;;;;;;19.58;100.00;100207.59;5053346;28;20459;-76
2021/06/30 00:05:32;;;;;;;6.30;3.60;;;;;;;19.59;100.00;100201.72;5053216;28;20457;-73
2021/06/30 00:07:59;;;;;;;7.70;4.90;;;;;;;19.64;100.00;100206.13;5052852;28;20935;-75
2021/06/30 00:10:25;;;;;;;8.27;4.70;;;;;;;19.60;100.00;100213.50;5052617;28;21108;-75
2021/06/30 00:12:53;;;;;;;9.13;5.63;;;;;;;19.62;100.00;100203.78;5053077;28;20462;-75
2021/06/30 00:15:23;;;;;;;7.93;4.50;;;;;;;19.62;100.00;100195.53;5053380;28;20446;-75
2021/06/30 00:17:49;;;;;;;11.50;4.77;;;;;;;19.62;100.00;100194.72;5052752;28;20943;-75
2021/06/30 00:20:16;;;;;;;5.50;3.83;;;;;;;19.61;100.00;100188.44;5053367;28;20450;-75
2021/06/30 00:22:42;;;;;;;7.10;4.10;;;;;;;19.59;100.00;100192.69;5053155;28;20477;-75
2021/06/30 00:25:11;;;;;;;8.43;4.60;;;;;;;19.60;100.00;100186.84;5057164;28;20454;-75
2021/06/30 00:27:37;;;;;;;9.97;5.37;;;;;;;19.61;100.00;100184.88;5057180;28;20446;-75
2021/06/30 00:30:07;;;;;;;7.33;4.53;;;;;;;19.62;100.00;100190.03;5057035;28;20482;-75
2021/06/30 00:32:34;;;;;;;6.97;4.30;;;;;;;19.64;100.00;100187.69;5056984;28;20811;-75
2021/06/30 00:35:00;;;;;;;7.07;4.90;;;;;;;19.70;100.00;100185.44;5057045;28;20445;-75
2021/06/30 00:37:27;;;;;;;7.00;4.40;;;;;;;19.69;100.00;100185.78;5056983;28;20448;-75
2021/06/30 00:39:53;;;;;;;5.03;3.80;;;;;;;19.71;100.00;100195.25;5056925;28;20446;-75
2021/06/30 00:42:20;;;;;;;7.10;3.60;;;;;;;19.75;100.00;100204.34;5056510;28;21009;-75
2021/06/30 00:44:46;;;;;;;10.87;5.87;;;;;;;19.78;100.00;100203.56;5056538;28;20820;-75
2021/06/30 00:47:14;;;;;;;7.27;4.63;;;;;;;19.79;100.00;100190.63;5056780;28;20443;-75
2021/06/30 00:49:40;;;;;;;10.30;4.70;;;;;;;19.76;100.00;100191.38;5056681;28;20457;-76
2021/06/30 00:52:08;;;;;;;6.07;3.80;;;;;;;19.71;100.00;100189.75;5056824;28;20549;-76
2021/06/30 00:54:34;;;;;;;4.67;3.57;;;;;;;19.69;100.00;100188.53;5056474;28;20456;-76
2021/06/30 00:57:01;;;;;;;7.47;4.27;;;;;;;19.67;100.00;100202.66;5056637;28;20445;-76
2021/06/30 00:59:27;;;;;;;6.43;4.10;;;;;;;19.65;100.00;100197.50;5056581;28;20442;-76
2021/06/30 01:01:54;;;;;;;10.37;4.73;;;;;;;19.60;100.00;100186.84;5056482;28;20458;-76
2021/06/30 01:04:22;;;;;;;10.83;6.00;;;;;;;19.50;100.00;100192.97;5056504;28;20442;-76
2021/06/30 01:06:49;;;;;;;8.87;4.73;;;;;;;19.49;100.00;100182.34;5056533;28;20629;-75
2021/06/30 01:09:15;;;;;;;9.10;5.30;;;;;;;19.51;100.00;100185.50;5056056;28;20962;-75
2021/06/30 01:11:42;;;;;;;7.23;4.40;;;;;;;19.56;100.00;100183.22;5056155;28;20486;-75
2021/06/30 01:14:08;;;;;;;8.37;5.23;;;;;;;19.59;100.00;100184.44;5056592;28;20442;-76
2021/06/30 01:16:35;;;;;;;8.53;6.13;;;;;;;19.60;100.00;100177.78;5056187;28;20820;-75
2021/06/30 01:19:01;;;;;;;8.87;5.93;;;;;;;19.60;100.00;100175.03;5056109;28;20454;-76
2021/06/30 01:21:29;;;;;;;8.70;4.97;;;;;;;19.64;100.00;100167.66;5056044;28;20441;-76
2021/06/30 01:23:57;;;;;;;11.07;6.00;;;;;;;19.67;100.00;100174.38;5056115;28;20441;-75
2021/06/30 01:26:23;;;;;;;8.57;5.67;;;;;;;19.72;100.00;100185.84;5055784;28;20943;-75
2021/06/30 01:28:50;;;;;;;7.03;4.67;;;;;;;19.76;100.00;100180.38;5056002;28;20837;-75
2021/06/30 01:31:16;;;;;;;7.90;5.20;;;;;;;19.77;100.00;100185.50;5055793;28;20493;-75
2021/06/30 01:33:43;;;;;;;6.53;5.23;;;;;;;19.80;100.00;100182.03;5056004;28;20449;-76
2021/06/30 01:36:09;;;;;;;7.90;4.87;;;;;;;19.81;100.00;100183.59;5054868;28;20465;-77
2021/06/30 01:38:36;;;;;;;8.10;4.80;;;;;;;19.82;100.00;100184.38;5056110;28;20457;-77
2021/06/30 01:41:04;;;;;;;8.07;5.70;;;;;;;19.81;100.00;100182.81;5056001;28;20444;-77
2021/06/30 01:43:30;;;;;;;9.13;6.00;;;;;;;19.82;100.00;100185.16;5055749;28;20475;-76
2021/06/30 01:45:58;;;;;;;8.03;5.47;;;;;;;19.84;100.00;100191.09;5055899;28;20825;-77
2021/06/30 01:48:24;;;;;;;5.60;4.13;;;;;;;19.80;100.00;100183.97;5062736;28;20442;-76
2021/06/30 01:50:53;;;;;;;8.93;5.90;;;;;;;19.81;100.00;100178.09;5055645;28;20489;-74
2021/06/30 01:53:19;;;;;;;7.97;5.47;;;;;;;19.81;100.00;100174.56;5056759;28;20474;-75
2021/06/30 01:55:47;;;;;;;8.83;5.80;;;;;;;19.81;100.00;100172.59;5055589;28;20430;-75
2021/06/30 01:58:18;;;;;;;8.50;5.73;;;;;;;19.85;100.00;100172.66;5055737;28;20442;-75
2021/06/30 02:00:45;;;;;;;10.50;5.87;;;;;;;19.86;100.00;100182.47;5055201;28;20907;-76
2021/06/30 02:03:11;;;;;;;9.53;6.80;;;;;;;19.83;100.00;100172.22;5055309;28;20489;-75
2021/06/30 02:05:38;;;;;;;10.23;6.50;;;;;;;19.79;100.00;100176.88;5055035;28;20954;-76
2021/06/30 02:08:05;;;;;;;8.00;5.57;;;;;;;19.78;100.00;100175.31;5055475;28;20886;-77
2021/06/30 02:10:31;;;;;;;8.90;6.57;;;;;;;19.72;100.00;100176.81;5058026;28;20488;-78
2021/06/30 02:12:58;;;;;;;11.80;5.80;;;;;;;19.70;100.00;100173.63;5059086;28;20462;-78
2021/06/30 02:15:28;;;;;;;8.20;5.60;;;;;;;19.64;100.00;100164.91;5061127;28;20446;-78
2021/06/30 02:17:55;;;;;;;8.37;6.10;;;;;;;19.52;100.00;100173.34;5060737;28;20445;-78
2021/06/30 02:20:22;;;;;;;9.70;6.00;;;;;;;19.51;100.00;100169.03;5059069;28;20449;-78
2021/06/30 02:22:49;;;;;;;8.20;5.03;;;;;;;19.49;100.00;100163.13;5059750;28;20892;-77
2021/06/30 02:25:18;;;;;;;10.17;5.77;;;;;;;19.46;100.00;100163.84;5058461;28;20823;-77
2021/06/30 02:27:46;;;;;;;13.60;5.77;;;;;;;19.45;100.00;100156.78;5057594;28;20453;-77
2021/06/30 02:30:15;;;;;;;8.67;5.87;;;;;;;19.44;100.00;100146.97;5057938;28;20457;-78
2021/06/30 02:32:43;;;;;;;7.70;4.80;;;;;;;19.38;100.00;100151.97;5058180;28;20462;-78
2021/06/30 02:35:13;;;;;;;14.93;6.70;;;;;;;19.33;100.00;100133.84;5059416;28;20473;-78
2021/06/30 02:37:40;;;;;;;9.73;6.17;;;;;;;19.37;100.00;100139.41;5057471;28;20994;-78
2021/06/30 02:40:09;;;;;;;10.50;5.03;;;;;;;19.39;100.00;100140.63;5057492;28;20446;-77
2021/06/30 02:42:36;;;;;;;11.00;6.30;;;;;;;19.40;100.00;100142.22;5058644;28;20843;-78
2021/06/30 02:45:05;;;;;;;7.97;5.73;;;;;;;19.28;100.00;100127.91;5057040;28;20454;-78
2021/06/30 02:47:31;;;;;;;7.90;5.63;;;;;;;19.13;100.00;100124.16;5055768;28;20451;-78
2021/06/30 02:49:59;;;;;;;10.20;6.00;;;;;;;19.08;100.00;100122.53;5059549;28;20446;-77
2021/06/30 02:52:26;;;;;;;11.47;6.37;;;;;;;19.01;100.00;100129.88;5055828;28;20486;-77
2021/06/30 02:54:52;;;;;;;12.87;6.90;;;;;;;19.02;100.00;100125.94;5055136;28;20845;-77
2021/06/30 02:57:18;;;;;;;8.37;6.37;;;;;;;19.03;100.00;100131.06;5055903;28;20952;-77
2021/06/30 02:59:45;;;;;;;9.47;6.37;;;;;;;18.99;100.00;100130.25;5056734;28;20450;-77
2021/06/30 03:02:11;;;;;;;12.00;6.47;;;;;;;18.99;100.00;100126.69;5057931;28;20457;-77
2021/06/30 03:04:38;;;;;;;8.40;5.40;;;;;;;18.95;100.00;100112.94;5056178;28;20454;-77
2021/06/30 03:07:06;;;;;;;12.53;6.90;;;;;;;18.89;100.00;100109.69;5057879;28;20458;-77
2021/06/30 03:09:32;;;;;;;8.27;5.30;;;;;;;18.94;100.00;100110.53;5058432;28;20442;-77
2021/06/30 03:11:59;;;;;;;8.90;5.70;;;;;;;18.98;100.00;100127.84;5055645;28;20489;-77
2021/06/30 03:14:25;;;;;;;8.60;5.23;;;;;;;19.00;100.00;100148.28;5056679;28;20446;-78
2021/06/30 03:16:52;;;;;;;8.30;5.60;;;;;;;19.02;100.00;100161.63;5054683;28;20940;-73
2021/06/30 03:19:18;;;;;;;9.90;5.90;;;;;;;19.11;100.00;100164.91;5053933;28;20445;-74
2021/06/30 03:21:45;;;;;;;5.80;4.30;;;;;;;19.16;100.00;100159.09;5053812;28;20462;-73
2021/06/30 03:24:12;;;;;;;13.00;6.43;;;;;;;19.13;100.00;100154.38;5057837;28;20446;-77
2021/06/30 03:26:39;;;;;;;9.63;6.13;;;;;;;19.06;100.00;100146.03;5057645;28;20450;-78
2021/06/30 03:29:05;;;;;;;9.30;6.40;;;;;;;19.07;100.00;100147.59;5059911;28;20454;-79
2021/06/30 03:31:33;;;;;;;8.60;5.60;;;;;;;19.09;100.00;100154.31;5059679;28;20490;-78
2021/06/30 03:34:00;;;;;;;12.47;6.87;;;;;;;19.12;100.00;100166.50;5058950;28;20454;-79
2021/06/30 03:36:26;;;;;;;8.50;5.90;;;;;;;19.09;100.00;100168.03;5059417;28;20481;-79
2021/06/30 03:38:53;;;;;;;13.20;6.70;;;;;;;19.08;100.00;100176.63;5059768;28;20439;-79
2021/06/30 03:41:21;;;;;;;9.60;5.67;;;;;;;19.04;100.00;100162.88;5059268;28;20438;-79
2021/06/30 03:43:47;;;;;;;9.33;5.47;;;;;;;19.05;100.00;100156.22;5058146;28;20450;-78
2021/06/30 03:46:14;;;;;;;10.40;7.23;;;;;;;19.06;100.00;100159.75;5057500;28;20848;-78
2021/06/30 03:48:40;;;;;;;8.90;5.33;;;;;;;19.07;100.00;100164.06;5060351;28;20446;-78
2021/06/30 03:51:07;;;;;;;8.20;5.23;;;;;;;19.05;100.00;100158.16;5053632;28;20486;-78
2021/06/30 03:53:33;;;;;;;9.60;5.67;;;;;;;18.96;100.00;100155.69;5053894;28;20477;-78
2021/06/30 03:56:00;;;;;;;10.00;6.30;;;;;;;18.93;100.00;100158.34;5054569;28;20438;-75
2021/06/30 03:58:28;;;;;;;9.13;5.93;;;;;;;18.87;100.00;100155.94;5052574;28;20927;-76
2021/06/30 04:00:54;;;;;;;9.23;6.40;;;;;;;18.89;100.00;100155.56;5053297;28;20442;-76
2021/06/30 04:03:20;;;;;;;10.83;6.43;;;;;;;18.98;100.00;100160.78;5053323;28;20470;-77
2021/06/30 04:05:47;;;;;;;11.10;6.53;;;;;;;18.98;100.00;100161.56;5053078;28;20974;-76
2021/06/30 04:08:13;;;;;;;8.57;4.80;;;;;;;18.98;100.00;100163.53;5053223;28;20442;-76
2021/06/30 04:10:41;;;;;;;8.07;5.70;;;;;;;18.98;100.00;100166.28;5053090;28;20445;-76
2021/06/30 04:13:08;;;;;;;10.90;5.63;;;;;;;19.00;100.00;100169.47;5053090;28;20540;-75
2021/06/30 04:15:36;;;;;;;9.47;5.53;;;;;;;19.03;100.00;100171.44;5053119;28;20445;-76
2021/06/30 04:18:05;;;;;;;9.67;6.30;;;;;;;19.05;100.00;100171.91;5053116;28;20446;-75
2021/06/30 04:20:31;;;;;;;12.90;7.50;;;;;;;19.05;100.00;100172.69;5053057;28;20453;-76
2021/06/30 04:22:58;;;;;;;11.57;6.50;;;;;;;19.06;100.00;100170.72;5053038;28;20454;-76
2021/06/30 04:25:25;;;;;;;9.90;6.10;;;;;;;19.08;100.00;100169.22;5053078;28;20458;-76
2021/06/30 04:27:52;;;;;;;11.40;6.90;;;;;;;19.13;100.00;100165.34;5053005;28;20461;-76
2021/06/30 04:30:18;;;;;;;9.80;7.23;;;;;;;19.16;100.00;100167.34;5053015;28;20453;-77
2021/06/30 04:32:47;;;;;;;8.80;6.73;;;;;;;19.12;100.00;100161.81;5052685;28;21029;-77
2021/06/30 04:35:14;;;;;;;13.10;7.43;;;;;;;19.15;100.00;100163.03;5053171;28;20450;-77
2021/06/30 04:37:40;;;;;;;11.63;6.87;;;;;;;19.16;100.00;100172.84;5052968;28;20454;-77
2021/06/30 04:40:08;;;;;;;15.10;6.67;;;;;;;19.13;100.00;100176.34;5053365;28;20480;-77
2021/06/30 04:42:34;;;;;;;11.37;6.70;;;;;;;19.12;100.00;100172.81;5054184;28;20465;-77
2021/06/30 04:45:01;;;;;;;11.77;7.10;;;;;;;19.14;100.00;100180.66;5054462;28;20454;-77
2021/06/30 04:47:27;;;;;;;9.80;6.30;;;;;;;19.15;100.00;100185.00;5054330;28;20453;-77
2021/06/30 04:49:55;;;;;;;9.23;5.60;;;;;;;19.16;100.00;100187.34;5054452;28;20447;-77
2021/06/30 04:52:22;;;;;;;7.70;5.30;;;;;;;19.14;100.00;100186.94;5053851;28;20492;-77
2021/06/30 04:54:48;;;;;;;9.63;6.20;;;;;;;19.14;100.00;100202.63;5052809;28;20458;-76
2021/06/30 04:57:14;;;;;;;9.23;5.97;;;;;;;19.12;100.00;100199.44;5052679;28;20947;-77
2021/06/30 04:59:41;;;;;;;10.47;5.80;;;;;;;19.13;100.00;100201.06;5053279;28;20468;-77
2021/06/30 05:02:07;;;;;;;10.10;5.83;;;;;;;19.15;100.00;100204.22;5052886;28;20837;-77
2021/06/30 05:04:34;;;;;;;7.73;5.20;;;;;;;19.13;100.00;100206.53;5053237;28;20449;-77
2021/06/30 05:07:01;;;;;;;9.30;4.70;;;;;;;19.05;100.00;100200.13;5053451;28;20935;-77
2021/06/30 05:09:28;;;;;;;8.40;4.80;;;;;;;19.09;100.00;100191.97;5054580;28;20442;-77
2021/06/30 05:11:54;;;;;;;9.47;6.37;;;;;;;19.06;100.00;100192.69;5056732;28;20489;-77
2021/06/30 05:14:21;;;;;;;7.83;5.43;;;;;;;19.01;100.00;100190.25;5057650;28;20449;-77
2021/06/30 05:16:47;;;;;;;9.90;5.60;;;;;;;18.97;100.00;100184.69;5057373;28;20438;-77
2021/06/30 05:19:14;;;;;;;7.07;4.83;;;;;;;18.98;100.00;100183.53;5056317;28;20450;-77
2021/06/30 05:21:40;;;;;;;7.53;5.20;;;;;;;18.94;100.00;100185.44;5056370;28;20461;-76
2021/06/30 05:24:08;;;;;;;6.03;5.10;;;;;;;18.97;100.00;100178.44;5056082;28;20453;-76
2021/06/30 05:26:34;;;;;;;11.50;5.90;;;;;;;18.93;100.00;100174.81;5055957;28;20445;-76
2021/06/30 05:29:01;;;;;;;7.17;4.33;;;;;;;18.94;100.00;100179.94;5056099;28;20438;-76
2021/06/30 05:31:27;;;;;;;6.60;5.10;;;;;;;18.94;100.00;100181.91;5055832;28;20493;-76
2021/06/30 05:33:54;;;;;;;8.07;4.50;;;;;;;18.95;100.00;100175.25;5055938;28;20947;-75
2021/06/30 05:36:20;;;;;;;6.33;4.20;;;;;;;18.94;100.00;100170.91;5055605;28;20445;-76
2021/06/30 05:38:47;;;;;;;6.97;4.87;;;;;;;18.93;100.00;100166.59;5055918;28;20438;-75
2021/06/30 05:41:15;;;;;;;5.07;3.50;;;;;;;18.90;100.00;100171.69;5055737;28;20446;-76
2021/06/30 05:43:42;;;;;;;6.10;4.00;;;;;;;18.83;100.00;100168.00;5056352;28;20435;-76
2021/06/30 05:46:08;;;;;;;6.00;4.20;;;;;;;18.81;100.00;100165.63;5062278;28;20425;-75
2021/06/30 05:48:35;;;;;;;4.70;3.90;;;;;;;18.84;100.00;100156.66;5055837;28;20449;-76
2021/06/30 05:51:02;;;;;;;7.03;3.60;;;;;;;18.89;100.00;100163.78;5055634;28;20591;-75
2021/06/30 05:53:29;;;;;;;5.77;4.10;;;;;;;18.94;100.00;100149.75;5055361;28;20469;-75
2021/06/30 05:55:55;;;;;;;5.87;4.03;;;;;;;18.96;100.00;100150.19;5055672;28;20437;-76
2021/06/30 05:58:23;;;;;;;6.40;3.87;;;;;;;18.96;100.00;100146.66;5055526;28;20450;-75
2021/06/30 06:00:50;;;;;;;7.47;4.17;;;;;;;18.97;100.00;100148.22;5055854;28;20900;-76
2021/06/30 06:03:16;;;;;;;6.77;4.50;;;;;;;18.96;100.00;100147.44;5055435;28;20458;-76
2021/06/30 06:05:43;;;;;;;6.50;3.90;;;;;;;18.95;100.00;100150.53;5055608;28;20871;-76
2021/06/30 06:08:09;;;;;;;4.50;3.70;;;;;;;18.89;100.00;100147.31;5056210;28;20446;-77
2021/06/30 06:10:35;;;;;;;6.60;4.07;;;;;;;18.93;100.00;100144.63;5056173;28;20438;-77
2021/06/30 06:13:02;;;;;;;4.63;3.93;;;;;;;18.92;100.00;100145.81;5056051;28;20482;-78
2021/06/30 06:15:30;;;;;;;6.00;4.13;;;;;;;18.94;100.00;100154.44;5056104;28;20447;-76
2021/06/30 06:17:57;;;;;;;6.40;4.80;;;;;;;18.94;100.00;100160.72;5056123;28;20446;-77
2021/06/30 06:20:23;;;;;;;6.83;4.90;;;;;;;18.93;100.00;100169.34;5055828;28;20442;-77
2021/06/30 06:22:50;;;;;;;7.03;4.50;;;;;;;18.95;100.00;100167.00;5055952;28;20474;-77
2021/06/30 06:25:16;;;;;;;6.30;4.27;;;;;;;19.00;100.00;100180.44;5056737;28;20442;-76
2021/06/30 06:27:43;;;;;;;6.30;4.80;;;;;;;18.99;100.00;100178.84;5054923;28;20450;-76
2021/06/30 06:30:10;;;;;;;6.63;4.47;;;;;;;19.00;100.00;100185.94;5054952;28;20955;-76
2021/06/30 06:32:38;;;;;;;7.10;5.00;;;;;;;19.00;100.00;100196.91;5054925;28;20501;-75
2021/06/30 06:35:06;;;;;;;6.00;3.63;;;;;;;19.01;100.00;100203.97;5055228;28;20449;-77
2021/06/30 06:37:36;;;;;;;7.60;4.63;;;;;;;18.99;100.00;100204.38;5055579;28;20430;-77
2021/06/30 06:40:04;;;;;;;8.73;4.67;;;;;;;18.98;100.00;100207.44;5054540;28;20512;-72
2021/06/30 06:42:32;;;;;;;8.07;5.20;;;;;;;18.96;100.00;100212.53;5054526;28;20497;-72
2021/06/30 06:44:59;;;;;;;7.20;4.50;;;;;;;18.94;100.00;100204.66;5054341;28;20947;-73
2021/06/30 06:47:25;;;;;;;6.60;5.00;;;;;;;18.94;100.00;100212.09;5054561;28;20444;-72
2021/06/30 06:49:53;;;;;;;10.23;5.40;;;;;;;18.96;100.00;100209.78;5054528;28;20442;-72
2021/06/30 06:52:19;;;;;;;7.60;4.70;;;;;;;18.97;100.00;100205.88;5054328;28;20486;-72
2021/06/30 06:54:46;;;;;;;5.77;4.10;;;;;;;18.98;100.00;100196.47;5054266;28;20473;-72
2021/06/30 06:57:12;;;;;;;6.13;4.43;;;;;;;19.05;100.00;100196.59;5054378;28;20446;-72
2021/06/30 06:59:39;;;;;;;7.10;4.43;;;;;;;19.04;100.00;100195.81;5054380;28;20936;-75
2021/06/30 07:02:05;;;;;;;7.77;5.03;;;;;;;19.07;100.00;100197.00;5054262;28;20890;-72
2021/06/30 07:04:32;;;;;;;6.60;4.77;;;;;;;19.01;100.00;100193.00;5056433;28;20968;-72
2021/06/30 07:07:00;;;;;;;4.67;3.77;;;;;;;19.03;100.00;100196.16;5074267;28;20532;-71
2021/06/30 07:09:27;;;;;;;6.07;4.20;;;;;;;19.00;100.00;100188.69;5074251;28;20832;-71
2021/06/30 07:11:53;;;;;;;8.63;4.50;;;;;;;18.97;100.00;100192.94;5073967;28;20481;-71
2021/06/30 07:14:20;;;;;;;6.40;3.63;;;;;;;18.95;100.00;100200.75;5074298;28;20445;-71
2021/06/30 07:16:46;;;;;;;3.27;2.60;;;;;;;18.96;100.00;100196.06;5054960;28;20466;-71
2021/06/30 07:19:13;;;;;;;5.23;3.20;;;;;;;18.94;100.00;100187.38;5054004;28;20461;-71
2021/06/30 07:21:39;;;;;;;5.83;3.87;;;;;;;18.90;100.00;100185.41;5053788;28;20837;-72
2021/06/30 07:24:07;;;;;;;8.27;4.07;;;;;;;18.88;100.00;100184.94;5054011;28;20488;-72
2021/06/30 07:26:34;;;;;;;6.00;3.40;;;;;;;18.87;100.00;100193.56;5053829;28;20459;-72
2021/06/30 07:29:04;;;;;;;6.27;3.40;;;;;;;18.85;100.00;100184.88;5053804;28;20442;-72
2021/06/30 07:31:31;;;;;;;4.37;3.40;;;;;;;18.88;100.00;100189.66;5053738;28;20448;-73
2021/06/30 07:33:57;;;;;;;5.80;3.13;;;;;;;18.84;100.00;100192.34;5052709;28;20482;-71
2021/06/30 07:36:24;;;;;;;4.37;2.93;;;;;;;18.87;100.00;100183.38;5053717;28;20529;-72
2021/06/30 07:38:50;;;;;;;3.57;2.93;;;;;;;18.85;100.00;100199.41;5053331;28;20442;-72
2021/06/30 07:41:18;;;;;;;4.37;2.80;;;;;;;18.88;100.00;100186.91;5053769;28;20503;-72
2021/06/30 07:43:45;;;;;;;4.10;3.07;;;;;;;18.94;100.00;100184.63;5053544;28;20447;-72
2021/06/30 07:46:11;;;;;;;6.70;4.17;;;;;;;18.96;100.00;100188.63;5060648;28;21039;-71
2021/06/30 07:48:38;;;;;;;8.07;3.80;;;;;;;18.90;100.00;100187.31;5053770;28;20438;-71
2021/06/30 07:51:05;;;;;;;4.30;3.10;;;;;;;18.93;100.00;100194.03;5053554;28;20446;-71
2021/06/30 07:53:31;;;;;;;11.50;4.10;;;;;;;18.95;100.00;100195.28;5054378;28;21018;-76
2021/06/30 07:55:58;;;;;;;5.00;3.77;;;;;;;18.93;100.00;100191.28;5053394;28;20426;-73
2021/06/30 07:58:26;;;;;;;4.57;3.63;;;;;;;18.93;100.00;100191.28;5053399;28;20473;-75
2021/06/30 08:00:53;;;;;;;9.40;4.00;;;;;;;18.94;100.00;100190.13;5053336;28;20450;-74
2021/06/30 08:03:19;;;;;;;8.70;4.20;;;;;;;18.94;100.00;100188.19;5052906;28;20469;-74
2021/06/30 08:05:46;;;;;;;6.73;3.80;;;;;;;18.95;100.00;100188.97;5053237;28;20438;-75
2021/06/30 08:08:12;;;;;;;3.60;3.30;;;;;;;18.93;100.00;100196.78;5053361;28;20449;-77
2021/06/30 08:10:39;;;;;;;6.00;3.57;;;;;;;18.90;100.00;100199.13;5053123;28;20821;-73
2021/06/30 08:13:05;;;;;;;6.60;3.90;;;;;;;18.90;100.00;100204.59;5052738;28;21033;-74
2021/06/30 08:15:33;;;;;;;4.70;3.57;;;;;;;18.86;100.00;100206.50;5053161;28;20438;-74
2021/06/30 08:17:59;;;;;;;5.87;4.13;;;;;;;18.84;100.00;100208.81;5053167;28;20450;-76
2021/06/30 08:20:26;;;;;;;5.40;3.97;;;;;;;18.76;100.00;100209.84;5053238;28;20446;-75
2021/06/30 08:22:52;;;;;;;8.03;4.53;;;;;;;18.80;100.00;100216.19;5052910;28;20476;-74
2021/06/30 08:25:19;;;;;;;5.80;3.70;;;;;;;18.86;100.00;100216.69;5053103;28;20448;-75
2021/06/30 08:27:46;;;;;;;4.77;3.43;;;;;;;18.90;100.00;100223.81;5052959;28;20449;-75
2021/06/30 08:30:13;;;;;;;5.43;3.70;;;;;;;18.96;100.00;100218.81;5052978;28;20540;-75
2021/06/30 08:32:43;;;;;;;5.73;3.57;;;;;;;19.00;100.00;100224.38;5052991;28;20493;-75
2021/06/30 08:35:11;;;;;;;5.07;3.50;;;;;;;19.00;100.00;100214.19;5052655;28;20920;-75
2021/06/30 08:37:41;;;;;;;5.17;2.90;;;;;;;19.01;100.00;100215.75;5052926;28;20450;-75
2021/06/30 08:40:09;;;;;;;6.80;4.07;;;;;;;18.92;100.00;100214.41;5052827;28;20438;-75
2021/06/30 08:42:36;;;;;;;3.63;3.03;;;;;;;18.89;100.00;100219.47;5052767;28;20462;-74
2021/06/30 08:45:02;;;;;;;5.17;3.87;;;;;;;18.88;100.00;100212.41;5055237;28;20430;-75
2021/06/30 08:47:33;;;;;;;3.20;1.90;;;;;;;18.88;100.00;100206.91;5056533;28;20939;-74
2021/06/30 08:50:04;;;;;;;4.67;3.40;;;;;;;18.86;100.00;100220.22;5056875;28;20772;-75
2021/06/30 08:52:31;;;;;;;5.47;3.60;;;;;;;18.86;100.00;100222.97;5056648;28;20482;-75
2021/06/30 08:54:58;;;;;;;4.03;3.33;;;;;;;18.84;100.00;100222.53;5056616;28;20453;-75
2021/06/30 08:57:26;;;;;;;5.73;3.50;;;;;;;18.83;100.00;100223.69;5056707;28;20445;-75
2021/06/30 08:59:53;;;;;;;5.63;3.27;;;;;;;18.83;100.00;100220.94;5056625;28;20477;-75
2021/06/30 09:02:20;;;;;;;3.70;2.93;;;;;;;18.81;100.00;100217.75;5056529;28;20469;-74
2021/06/30 09:04:46;;;;;;;4.30;3.27;;;;;;;18.86;100.00;100220.22;5056530;28;20446;-74
2021/06/30 09:07:14;;;;;;;7.00;4.60;;;;;;;18.90;100.00;100217.50;5056493;28;20442;-75
2021/06/30 09:09:42;;;;;;;4.03;2.80;;;;;;;18.95;100.00;100228.22;5056121;28;20947;-75
2021/06/30 09:12:10;;;;;;;3.73;3.33;;;;;;;18.98;100.00;100221.97;5056246;28;20469;-75
2021/06/30 09:14:40;;;;;;;4.97;3.70;;;;;;;18.99;100.00;100231.81;5056378;28;20515;-75
2021/06/30 09:17:18;;;;;;;8.33;3.77;;;;;;;19.01;100.00;100226.72;5056552;28;20541;-74
2021/06/30 09:20:06;;;;;;;5.47;4.13;;;;;;;19.01;100.00;100221.25;5056319;28;20423;-75
2021/06/30 09:22:45;;;;;;;6.00;3.87;;;;;;;18.97;100.00;100225.88;5056153;28;20465;-75
2021/06/30 09:25:26;;;;;;;7.83;4.73;;;;;;;18.95;100.00;100228.22;5056102;28;20800;-75
2021/06/30 09:27:53;;;;;;;4.57;3.40;;;;;;;18.97;100.00;100214.91;5056044;28;20430;-75
2021/06/30 09:30:20;;;;;;;4.60;3.40;;;;;;;18.96;100.00;100235.28;5055968;28;20449;-75
2021/06/30 09:32:57;;;;;;;4.90;3.90;;;;;;;18.95;100.00;100241.13;5055839;28;20490;-75
2021/06/30 09:35:26;;;;;;;5.03;3.07;;;;;;;18.94;100.00;100242.28;5055894;28;20442;-75
2021/06/30 09:37:55;;;;;;;7.03;3.97;;;;;;;18.90;100.00;100237.53;5055579;28;20794;-75
2021/06/30 09:40:22;;;;;;;5.30;3.50;;;;;;;18.89;100.00;100252.41;5055529;28;20935;-75
2021/06/30 09:42:49;;;;;;;4.83;3.90;;;;;;;18.88;100.00;100242.59;5061669;28;20447;-74
2021/06/30 09:45:18;;;;;;;5.10;3.40;;;;;;;18.89;100.00;100240.63;5056464;28;20474;-74
2021/06/30 09:47:47;;;;;;;4.90;3.90;;;;;;;18.93;100.00;100237.97;5055956;28;20457;-74
2021/06/30 09:50:14;;;;;;;4.07;3.67;;;;;;;18.93;100.00;100251.69;5055692;28;20450;-75
2021/06/30 09:52:42;;;;;;;4.67;3.40;;;;;;;18.88;100.00;100253.56;5055610;28;20490;-75
2021/06/30 09:55:27;;;;;;;4.53;3.20;;;;;;;18.93;100.00;100243.44;5055089;28;20829;-75
2021/06/30 09:57:54;;;;;;;5.17;3.73;;;;;;;18.94;100.00;100234.06;5055416;28;20438;-75
2021/06/30 10:00:21;;;;;;;6.30;3.97;;;;;;;18.89;100.00;100238.69;5055522;28;20450;-75
2021/06/30 10:02:49;;;;;;;5.00;3.63;;;;;;;18.83;100.00;100233.88;5055352;28;20466;-74
2021/06/30 10:05:27;;;;;;;4.83;3.37;;;;;;;18.85;100.00;100234.28;5055370;28;20535;-75
2021/06/30 10:08:08;;;;;;;5.03;4.03;;;;;;;18.86;100.00;100228.47;5055411;28;20458;-75
2021/06/30 10:10:36;;;;;;;5.60;3.90;;;;;;;18.80;100.00;100229.91;5055053;28;20427;-74
2021/06/30 10:13:02;;;;;;;4.90;3.67;;;;;;;18.81;100.00;100233.44;5054746;28;20494;-74
2021/06/30 10:15:29;;;;;;;5.13;3.30;;;;;;;18.80;100.00;100221.66;5054933;28;20939;-74
2021/06/30 10:17:56;;;;;;;5.93;3.70;;;;;;;18.79;100.00;100220.09;5055187;28;20442;-74
2021/06/30 10:20:23;;;;;;;5.63;3.60;;;;;;;18.81;100.00;100217.75;5055139;28;20446;-75
2021/06/30 10:22:51;;;;;;;7.87;4.30;;;;;;;18.86;100.00;100214.72;5055009;28;20504;-74
2021/06/30 10:25:18;;;;;;;5.77;3.60;;;;;;;18.89;100.00;100207.69;5055004;28;20438;-74
2021/06/30 10:27:46;;;;;;;4.17;3.13;;;;;;;18.89;100.00;100215.94;5054657;28;20982;-74
2021/06/30 10:30:16;;;;;;;5.70;4.00;;;;;;;18.84;100.00;100210.75;5054942;28;20443;-74
2021/06/30 10:32:55;;;;;;;5.07;3.30;;;;;;;18.79;100.00;100209.09;5054780;28;20458;-74
2021/06/30 10:35:24;;;;;;;5.33;3.50;;;;;;;18.86;100.00;100202.97;5054887;28;20462;-74
2021/06/30 10:37:52;;;;;;;5.67;4.83;;;;;;;18.82;100.00;100208.38;5054811;28;21122;-74
2021/06/30 10:40:21;;;;;;;6.03;4.40;;;;;;;18.85;100.00;100204.88;5054736;28;20442;-74
2021/06/30 10:43:08;;;;;;;7.60;4.43;;;;;;;18.89;100.00;100200.25;5054628;28;20558;-74
2021/06/30 10:45:34;;;;;;;6.20;4.43;;;;;;;18.98;100.00;100196.47;5054688;28;20528;-75
2021/06/30 10:48:06;;;;;;;6.10;4.07;;;;;;;19.04;100.00;100192.28;5054598;28;20449;-75
2021/06/30 10:50:35;;;;;;;6.23;3.57;;;;;;;19.00;100.00;100194.16;5054548;28;20442;-75
2021/06/30 10:53:36;;;;;;;5.33;3.60;;;;;;;18.84;100.00;100189.59;5054402;28;20489;-75
2021/06/30 10:56:06;;;;;;;6.33;3.77;;;;;;;18.88;100.00;100193.19;5054503;28;20441;-75
2021/06/30 10:58:34;;;;;;;7.57;4.23;;;;;;;18.94;100.00;100192.88;5054397;28;20881;-75
2021/06/30 11:01:08;;;;;;;5.07;4.13;;;;;;;18.96;100.00;100191.34;5054419;28;20809;-75
2021/06/30 11:03:37;;;;;;;4.67;3.43;;;;;;;18.95;100.00;100194.44;5054275;28;20472;-75
2021/06/30 11:06:35;;;;;;;8.00;4.53;;;;;;;18.95;100.00;100202.69;5054272;28;20434;-75
2021/06/30 11:09:06;;;;;;;6.63;3.97;;;;;;;18.95;100.00;100202.69;5053337;28;20513;-75
2021/06/30 11:12:03;;;;;;;7.50;4.90;;;;;;;18.98;100.00;100212.94;5054089;28;20999;-75
2021/06/30 11:14:42;;;;;;;7.43;4.40;;;;;;;18.97;100.00;100203.13;5054344;28;20492;-76
2021/06/30 11:17:08;;;;;;;4.43;3.50;;;;;;;18.94;100.00;100199.16;5054027;28;20434;-76
2021/06/30 11:19:45;;;;;;;5.53;3.97;;;;;;;18.90;100.00;100190.88;5054013;28;20449;-76